createdAt,value
2019-04-06T00:01:13.142Z,35.17
2019-04-06T00:06:37.533Z,32.13
2019-04-06T00:12:01.238Z,31.10
2019-04-06T00:17:26.205Z,30.03
2019-04-06T00:22:50.418Z,26.43
2019-04-06T00:28:14.228Z,26.93
2019-04-06T00:33:38.608Z,26.07
2019-04-06T00:39:02.485Z,25.00
2019-04-06T00:44:28.233Z,24.57
2019-04-06T00:49:53.763Z,24.03
2019-04-06T00:55:18.097Z,22.77
2019-04-06T01:00:41.950Z,24.03
2019-04-06T01:06:06.470Z,23.13
2019-04-06T01:11:30.181Z,22.73
2019-04-06T01:16:54.675Z,22.23
2019-04-06T01:22:19.136Z,21.43
2019-04-06T01:27:42.737Z,22.70
2019-04-06T01:33:06.463Z,21.80
2019-04-06T01:38:30.594Z,21.57
2019-04-06T01:43:54.415Z,22.17
2019-04-06T01:49:17.811Z,22.37
2019-04-06T01:54:41.420Z,24.23
2019-04-06T02:00:07.946Z,25.47
2019-04-06T02:05:32.198Z,25.57
2019-04-06T02:10:56.424Z,27.10
2019-04-06T02:16:20.919Z,26.97
2019-04-06T02:21:45.313Z,28.90
2019-04-06T02:27:09.535Z,28.07
2019-04-06T02:32:52.239Z,28.13
2019-04-06T02:38:27.710Z,27.43
2019-04-06T02:43:52.184Z,29.00
2019-04-06T02:49:16.541Z,28.47
2019-04-06T02:54:39.957Z,26.77
2019-04-06T03:00:04.351Z,25.73
2019-04-06T03:05:28.522Z,26.20
2019-04-06T03:10:52.752Z,26.17
2019-04-06T03:16:18.188Z,27.63
2019-04-06T03:21:41.639Z,27.47
2019-04-06T03:27:05.187Z,29.27
2019-04-06T03:32:29.514Z,28.50
2019-04-06T03:37:53.702Z,29.07
2019-04-06T03:43:18.141Z,28.50
2019-04-06T03:48:42.222Z,26.60
2019-04-06T03:54:06.817Z,28.43
2019-04-06T03:59:30.878Z,28.00
2019-04-06T04:04:55.063Z,28.57
2019-04-06T04:10:35.528Z,28.83
2019-04-06T04:15:58.895Z,28.40
2019-04-06T04:21:22.878Z,26.37
2019-04-06T04:26:47.105Z,26.87
2019-04-06T04:32:11.550Z,26.67
2019-04-06T04:37:35.787Z,26.70
2019-04-06T04:42:59.479Z,26.93
2019-04-06T04:48:23.522Z,26.30
2019-04-06T04:53:47.835Z,25.10
2019-04-06T04:59:11.723Z,24.83
2019-04-06T05:04:35.491Z,25.30
2019-04-06T05:09:59.967Z,26.47
2019-04-06T05:15:35.468Z,25.37
2019-04-06T05:20:59.322Z,24.10
2019-04-06T05:26:23.925Z,25.00
2019-04-06T05:31:47.300Z,23.70
2019-04-06T05:37:11.536Z,23.83
2019-04-06T05:42:36.150Z,23.77
2019-04-06T05:48:00.267Z,23.90
2019-04-06T05:53:24.584Z,21.80
2019-04-06T05:58:49.967Z,22.13
2019-04-06T06:04:13.866Z,22.07
2019-04-06T06:09:37.186Z,22.17
2019-04-06T06:15:01.266Z,22.20
2019-04-06T06:20:25.448Z,22.97
2019-04-06T06:25:49.755Z,22.90
2019-04-06T06:31:13.339Z,22.60
2019-04-06T06:36:36.990Z,22.97
2019-04-06T06:42:01.735Z,23.80
2019-04-06T06:47:26.267Z,22.13
2019-04-06T06:52:50.417Z,22.87
2019-04-06T06:58:24.836Z,23.42
2019-04-06T07:03:40.046Z,24.05
2019-04-06T07:09:06.678Z,22.60
2019-04-06T07:14:31.032Z,24.40
2019-04-06T07:19:54.794Z,24.70
2019-04-06T07:25:19.295Z,23.45
2019-04-06T07:30:42.669Z,24.25
2019-04-06T07:36:06.278Z,25.82
2019-04-06T07:41:29.710Z,24.72
2019-04-06T07:46:54.062Z,24.67
2019-04-06T07:52:18.064Z,24.02
2019-04-06T07:57:42.231Z,25.35
2019-04-06T08:03:06.153Z,24.07
2019-04-06T08:08:30.024Z,24.30
2019-04-06T08:13:53.915Z,25.43
2019-04-06T08:19:18.501Z,26.02
2019-04-06T08:24:42.609Z,24.57
2019-04-06T08:30:07.611Z,24.27
2019-04-06T08:35:31.163Z,25.32
2019-04-06T08:40:54.622Z,25.40
2019-04-06T08:46:18.396Z,24.90
2019-04-06T08:51:41.988Z,24.55
2019-04-06T08:57:06.108Z,24.63
2019-04-06T09:02:29.736Z,25.48
2019-04-06T09:07:53.974Z,25.08
2019-04-06T09:13:18.498Z,24.60
2019-04-06T09:18:43.898Z,25.45
2019-04-06T09:24:08.084Z,25.25
2019-04-06T09:29:32.285Z,24.67
2019-04-06T09:34:56.818Z,22.95
2019-04-06T09:40:20.749Z,22.80
2019-04-06T09:46:18.560Z,22.17
2019-04-06T09:51:59.447Z,22.58
2019-04-06T09:57:33.769Z,23.67
2019-04-06T10:03:15.685Z,21.37
2019-04-06T10:08:53.283Z,21.93
2019-04-06T10:14:25.687Z,22.48
2019-04-06T10:20:04.376Z,20.45
2019-04-06T10:25:53.692Z,18.35
2019-04-06T10:31:37.344Z,18.32
2019-04-06T10:37:20.385Z,18.52
2019-04-06T10:43:09.398Z,18.95
2019-04-06T10:48:53.179Z,18.30
2019-04-06T10:54:34.044Z,19.82
2019-04-06T11:00:16.172Z,19.05
2019-04-06T11:05:57.697Z,19.02
2019-04-06T11:11:42.158Z,18.77
2019-04-06T11:17:23.588Z,18.07
2019-04-06T11:23:05.498Z,19.65
2019-04-06T11:28:47.851Z,18.95
2019-04-06T11:34:30.621Z,19.45
2019-04-06T11:40:14.068Z,21.07
2019-04-06T11:45:56.739Z,18.90
2019-04-06T11:51:48.561Z,19.95
2019-04-06T11:57:18.358Z,19.05
2019-04-06T12:03:00.567Z,18.55
2019-04-06T12:08:36.009Z,18.62
2019-04-06T12:14:12.630Z,18.95
2019-04-06T12:19:48.423Z,19.55
2019-04-06T12:25:31.435Z,16.10
2019-04-06T12:31:16.950Z,17.17
2019-04-06T12:36:47.175Z,18.17
2019-04-06T12:42:28.577Z,17.20
2019-04-06T12:48:09.706Z,18.60
2019-04-06T12:53:54.743Z,17.82
2019-04-06T12:59:47.025Z,16.95
2019-04-06T13:05:21.164Z,16.77
2019-04-06T13:11:20.161Z,14.68
2019-04-06T13:17:03.432Z,13.43
2019-04-06T13:22:44.648Z,12.78
2019-04-06T13:28:34.433Z,12.53
2019-04-06T13:34:10.823Z,12.85
2019-04-06T13:39:45.073Z,12.82
2019-04-06T13:45:20.454Z,12.43
2019-04-06T13:50:53.767Z,13.03
2019-04-06T13:56:25.317Z,11.95
2019-04-06T14:02:02.013Z,12.78
2019-04-06T14:07:50.345Z,12.45
2019-04-06T14:13:39.197Z,13.18
2019-04-06T14:19:24.203Z,13.90
2019-04-06T14:25:13.853Z,12.58
2019-04-06T14:30:54.972Z,12.75
2019-04-06T14:36:41.729Z,12.75
2019-04-06T14:42:12.763Z,13.62
2019-04-06T14:47:45.061Z,12.60
2019-04-06T14:53:21.143Z,12.18
2019-04-06T14:59:07.445Z,12.80
2019-04-06T15:04:48.927Z,12.88
2019-04-06T15:10:22.569Z,13.13
2019-04-06T15:15:58.736Z,12.58
2019-04-06T15:21:30.979Z,12.50
2019-04-06T15:27:19.640Z,14.07
2019-04-06T15:32:56.011Z,11.95
2019-04-06T15:38:48.605Z,13.55
2019-04-06T15:44:30.186Z,12.35
2019-04-06T15:50:08.713Z,12.58
2019-04-06T15:55:40.091Z,11.85
2019-04-06T16:01:23.760Z,11.33
2019-04-06T16:07:07.338Z,10.72
2019-04-06T16:12:43.456Z,11.83
2019-04-06T16:18:28.971Z,14.75
2019-04-06T16:24:03.072Z,32.40
2019-04-06T16:29:36.946Z,12.10
2019-04-06T16:35:09.852Z,13.55
2019-04-06T16:41:10.502Z,13.50
2019-04-06T16:46:50.556Z,16.42
2019-04-06T16:52:41.383Z,14.43
2019-04-06T16:58:24.726Z,13.58
2019-04-06T17:03:58.901Z,12.15
2019-04-06T17:09:30.064Z,12.23
2019-04-06T17:15:06.356Z,12.58
2019-04-06T17:20:47.473Z,12.33
2019-04-06T17:26:33.748Z,12.07
2019-04-06T17:32:16.569Z,13.40
2019-04-06T17:38:04.969Z,14.13
2019-04-06T17:43:56.729Z,14.05
2019-04-06T17:49:29.278Z,15.85
2019-04-06T17:55:04.878Z,14.95
2019-04-06T18:00:39.465Z,15.37
2019-04-06T18:06:16.349Z,14.23
2019-04-06T18:11:48.063Z,15.50
2019-04-06T18:17:12.871Z,15.32
2019-04-06T18:22:37.867Z,15.38
2019-04-06T18:28:01.637Z,16.00
2019-04-06T18:33:26.100Z,16.32
2019-04-06T18:39:04.177Z,15.80
2019-04-06T18:44:29.056Z,16.20
2019-04-06T18:49:53.760Z,14.80
2019-04-06T18:55:18.242Z,15.40
2019-04-06T19:00:42.339Z,17.12
2019-04-06T19:06:07.133Z,15.63
2019-04-06T19:11:31.327Z,16.45
2019-04-06T19:16:55.956Z,16.03
2019-04-06T19:22:19.820Z,15.17
2019-04-06T19:27:43.673Z,15.43
2019-04-06T19:33:08.331Z,14.47
2019-04-06T19:38:32.544Z,13.50
2019-04-06T19:43:56.603Z,17.30
2019-04-06T19:49:21.160Z,15.77
2019-04-06T19:54:44.699Z,15.40
2019-04-06T20:00:09.743Z,14.63
2019-04-06T20:05:33.304Z,15.27
2019-04-06T20:10:57.643Z,13.73
2019-04-06T20:16:21.822Z,14.23
2019-04-06T20:21:45.510Z,12.67
2019-04-06T20:27:09.382Z,14.33
2019-04-06T20:32:32.893Z,14.13
2019-04-06T20:37:56.257Z,14.20
2019-04-06T20:43:19.813Z,14.27
2019-04-06T20:48:44.682Z,13.73
2019-04-06T20:54:09.194Z,13.33
2019-04-06T20:59:33.231Z,13.17
2019-04-06T21:04:57.812Z,13.23
2019-04-06T21:10:22.158Z,14.23
2019-04-06T21:15:46.365Z,15.13
2019-04-06T21:21:11.003Z,14.60
2019-04-06T21:26:34.483Z,13.63
2019-04-06T21:31:59.507Z,14.27
2019-04-06T21:37:25.452Z,14.37
2019-04-06T21:42:49.089Z,13.63
2019-04-06T21:48:13.517Z,14.20
2019-04-06T21:53:37.815Z,14.57
2019-04-06T21:59:01.627Z,15.17
2019-04-06T22:04:26.919Z,14.67
2019-04-06T22:09:51.597Z,14.37
2019-04-06T22:15:16.367Z,14.80
2019-04-06T22:20:42.050Z,13.50
2019-04-06T22:26:06.198Z,14.60
2019-04-06T22:31:30.555Z,16.63
2019-04-06T22:36:55.937Z,14.97
2019-04-06T22:42:19.670Z,14.93
2019-04-06T22:47:44.123Z,13.53
2019-04-06T22:53:08.746Z,14.30
2019-04-06T22:58:33.395Z,14.57
2019-04-06T23:04:15.191Z,15.73
2019-04-06T23:09:38.541Z,17.73
2019-04-06T23:15:02.048Z,15.93
2019-04-06T23:20:25.919Z,14.63
2019-04-06T23:25:50.233Z,15.97
2019-04-06T23:31:14.718Z,15.80
2019-04-06T23:36:38.123Z,15.23
2019-04-06T23:42:01.839Z,16.03
2019-04-06T23:47:25.625Z,15.57
2019-04-06T23:52:49.226Z,15.20
2019-04-06T23:58:14.065Z,15.90
